Time;durP1;ratioP1;P1;durP2;ratioP2;P2;SDS_P1;SDS_P2;PMS_P1;PMS_P2;Temp;Humidity;BMP_temperature;BMP_pressure;BME280_temperature;BME280_humidity;BME280_pressure;Samples;Min_cycle;Max_cycle;Signal;HPM_P1;HPM_P2
2023/12/05 00:00:50;;;;;;;48.92;26.63;;;;;;;2.33;100.00;99292.59;4961727;29;20494;-79
2023/12/05 00:03:17;;;;;;;48.00;26.98;;;;;;;2.31;100.00;99279.00;4960109;28;20338;-79
2023/12/05 00:05:43;;;;;;;46.40;26.40;;;;;;;2.32;100.00;99283.22;4960135;29;20082;-79
2023/12/05 00:08:10;;;;;;;43.97;25.42;;;;;;;2.34;100.00;99280.50;4959669;29;20086;-79
2023/12/05 00:10:38;;;;;;;41.95;25.75;;;;;;;2.37;100.00;99280.19;4959449;29;20078;-79
2023/12/05 00:13:07;;;;;;;47.35;25.42;;;;;;;2.35;100.00;99271.00;4957959;29;20110;-79
2023/12/05 00:15:33;;;;;;;42.65;24.77;;;;;;;2.41;100.00;99283.31;4959012;28;20051;-79
2023/12/05 00:18:00;;;;;;;44.13;24.27;;;;;;;2.44;100.00;99275.31;4966798;29;20086;-80
2023/12/05 00:20:27;;;;;;;42.65;26.40;;;;;;;2.42;100.00;99269.47;4962790;29;20051;-80
2023/12/05 00:22:53;;;;;;;44.60;25.05;;;;;;;2.43;100.00;99260.78;4962618;29;20129;-80
2023/12/05 00:25:20;;;;;;;41.95;24.35;;;;;;;2.47;100.00;99259.53;4960204;28;20087;-81
2023/12/05 00:27:48;;;;;;;42.25;24.48;;;;;;;2.48;100.00;99261.19;4959880;28;20130;-80
2023/12/05 00:30:14;;;;;;;42.33;23.40;;;;;;;2.52;100.00;99247.03;4959901;29;20153;-80
2023/12/05 00:32:41;;;;;;;39.78;22.83;;;;;;;2.55;100.00;99257.09;4960607;28;20051;-80
2023/12/05 00:35:08;;;;;;;41.05;24.15;;;;;;;2.54;100.00;99263.22;4960684;28;20138;-81
2023/12/05 00:37:34;;;;;;;42.17;22.98;;;;;;;2.57;100.00;99265.53;4960822;29;20202;-80
2023/12/05 00:40:01;;;;;;;40.75;23.20;;;;;;;2.57;100.00;99247.44;4960781;29;20093;-79
2023/12/05 00:42:28;;;;;;;38.00;23.75;;;;;;;2.57;100.00;99250.03;4959858;28;20560;-80
2023/12/05 00:44:56;;;;;;;41.13;25.27;;;;;;;2.55;100.00;99250.16;4959908;29;20087;-80
2023/12/05 00:47:23;;;;;;;43.70;23.95;;;;;;;2.56;100.00;99256.16;4960287;28;20142;-81
2023/12/05 00:49:49;;;;;;;39.78;23.10;;;;;;;2.59;100.00;99255.88;4962765;29;20138;-81
2023/12/05 00:52:17;;;;;;;41.13;24.23;;;;;;;2.60;100.00;99252.34;4963507;29;20122;-81
2023/12/05 00:54:44;;;;;;;43.25;24.98;;;;;;;2.58;100.00;99260.22;4961425;29;20051;-82
2023/12/05 00:57:13;;;;;;;37.83;22.95;;;;;;;2.61;100.00;99259.13;4962389;29;20141;-82
2023/12/05 00:59:39;;;;;;;37.85;22.48;;;;;;;2.64;100.00;99251.09;4955855;29;20055;-80
2023/12/05 01:02:09;;;;;;;40.38;23.48;;;;;;;2.64;100.00;99245.94;4962857;29;20087;-79
2023/12/05 01:04:36;;;;;;;39.72;22.70;;;;;;;2.62;100.00;99251.25;4961393;28;20055;-80
2023/12/05 01:07:04;;;;;;;38.67;23.83;;;;;;;2.68;100.00;99252.47;4959923;29;20123;-80
2023/12/05 01:09:31;;;;;;;41.33;24.15;;;;;;;2.63;100.00;99252.88;4961305;28;20490;-81
2023/12/05 01:11:57;;;;;;;38.10;22.15;;;;;;;2.72;100.00;99261.56;4960717;29;20055;-80
2023/12/05 01:14:24;;;;;;;38.80;23.80;;;;;;;2.73;100.00;99268.34;4960403;28;20058;-81
2023/12/05 01:16:50;;;;;;;42.83;23.40;;;;;;;2.75;100.00;99266.44;4960054;29;20578;-80
2023/12/05 01:19:18;;;;;;;38.75;23.40;;;;;;;2.74;100.00;99264.81;4967178;28;20517;-81
2023/12/05 01:21:45;;;;;;;41.58;23.85;;;;;;;2.75;100.00;99265.63;4960235;29;20074;-80
2023/12/05 01:24:13;;;;;;;40.63;23.80;;;;;;;2.70;100.00;99258.31;4960234;28;20082;-80
2023/12/05 01:26:40;;;;;;;41.58;24.60;;;;;;;2.71;100.00;99265.09;4953244;29;20058;-81
2023/12/05 01:29:07;;;;;;;41.47;24.65;;;;;;;2.75;100.00;99258.69;4960632;28;20044;-80
2023/12/05 01:31:33;;;;;;;43.08;24.35;;;;;;;2.81;100.00;99259.91;4961405;28;20098;-80
2023/12/05 01:34:00;;;;;;;43.65;24.90;;;;;;;2.75;100.00;99250.13;4963223;29;20134;-80
2023/12/05 01:36:28;;;;;;;43.80;25.42;;;;;;;2.78;100.00;99261.00;4963994;29;20051;-80
2023/12/05 01:38:55;;;;;;;43.30;25.73;;;;;;;2.80;100.00;99253.94;4965421;28;20115;-80
2023/12/05 01:41:22;;;;;;;39.97;23.55;;;;;;;2.82;100.00;99262.34;4966137;28;20544;-80
2023/12/05 01:43:49;;;;;;;43.20;24.27;;;;;;;2.78;100.00;99255.03;4966658;28;20059;-82
2023/12/05 01:46:16;;;;;;;46.95;24.23;;;;;;;2.82;100.00;99262.34;4960645;29;20134;-81
2023/12/05 01:48:48;;;;;;;44.83;24.90;;;;;;;2.80;100.00;99264.25;4960006;29;20051;-81
2023/12/05 01:51:16;;;;;;;45.83;24.77;;;;;;;2.85;100.00;99262.03;4959758;28;20082;-81
2023/12/05 01:53:46;;;;;;;46.05;25.10;;;;;;;2.87;100.00;99259.31;4960107;28;20054;-79
2023/12/05 01:56:13;;;;;;;44.70;24.90;;;;;;;2.84;100.00;99257.84;4959065;29;20417;-82
2023/12/05 01:58:40;;;;;;;45.85;24.13;;;;;;;2.84;100.00;99254.44;4951883;29;20075;-80
2023/12/05 02:01:09;;;;;;;43.88;25.02;;;;;;;2.89;100.00;99244.50;4959648;28;20130;-80
2023/12/05 02:03:38;;;;;;;44.53;24.77;;;;;;;2.89;100.00;99241.91;4959588;28;20589;-81
2023/12/05 02:06:06;;;;;;;45.72;25.20;;;;;;;2.94;100.00;99250.06;4959389;28;20062;-79
2023/12/05 02:08:33;;;;;;;42.22;24.17;;;;;;;2.94;100.00;99245.72;4961778;28;20050;-80
2023/12/05 02:11:01;;;;;;;45.28;25.00;;;;;;;2.93;100.00;99246.66;4962284;29;20071;-81
2023/12/05 02:13:28;;;;;;;45.75;24.35;;;;;;;2.92;100.00;99245.03;4963908;28;20166;-81
2023/12/05 02:16:00;;;;;;;44.33;25.83;;;;;;;2.93;100.00;99246.66;4959527;29;20115;-81
2023/12/05 02:18:32;;;;;;;41.90;25.08;;;;;;;3.00;100.00;99250.31;4960654;28;20043;-81
2023/12/05 02:21:06;;;;;;;46.90;25.98;;;;;;;3.03;100.00;99241.47;4962048;29;20086;-80
2023/12/05 02:23:50;;;;;;;43.53;23.55;;;;;;;3.03;100.00;99251.00;4958507;29;20478;-80
2023/12/05 02:26:28;;;;;;;43.25;25.08;;;;;;;3.03;100.00;99248.41;4958504;29;20047;-79
2023/12/05 02:28:56;;;;;;;47.30;25.70;;;;;;;3.02;100.00;99246.78;4958257;28;20134;-80
2023/12/05 02:31:23;;;;;;;43.90;25.42;;;;;;;2.96;100.00;99243.78;4958888;29;20077;-80
2023/12/05 02:33:50;;;;;;;45.38;25.80;;;;;;;2.98;100.00;99233.31;4958024;28;20055;-80
2023/12/05 02:36:24;;;;;;;46.58;25.95;;;;;;;3.04;100.00;99239.69;4959377;29;20055;-81
2023/12/05 02:39:05;;;;;;;47.28;25.88;;;;;;;3.03;100.00;99230.31;4959348;29;20078;-81
2023/12/05 02:41:36;;;;;;;46.90;26.48;;;;;;;3.02;100.00;99236.44;4964815;28;20514;-80
2023/12/05 02:44:07;;;;;;;46.35;25.42;;;;;;;3.01;100.00;99233.03;4959094;28;20573;-79
2023/12/05 02:46:35;;;;;;;44.85;25.23;;;;;;;2.99;100.00;99227.19;4958875;29;20074;-80
2023/12/05 02:49:03;;;;;;;47.55;26.42;;;;;;;3.08;100.00;99228.94;4958889;29;20134;-81
2023/12/05 02:51:30;;;;;;;43.45;24.35;;;;;;;3.07;100.00;99235.06;4962747;28;20058;-81
2023/12/05 02:54:01;;;;;;;42.47;25.70;;;;;;;3.11;100.00;99235.59;4964803;28;20058;-83
2023/12/05 02:56:29;;;;;;;44.55;24.48;;;;;;;3.13;100.00;99244.84;4960409;29;20114;-82
2023/12/05 02:58:59;;;;;;;43.10;24.15;;;;;;;3.12;100.00;99226.88;4961271;28;20047;-82
2023/12/05 03:01:41;;;;;;;42.83;24.95;;;;;;;3.15;100.00;99234.34;4960675;29;20524;-83
2023/12/05 03:04:08;;;;;;;42.00;24.23;;;;;;;3.09;100.00;99219.41;4960544;29;20059;-82
2023/12/05 03:06:35;;;;;;;41.45;24.30;;;;;;;3.14;100.00;99224.97;4959408;29;20141;-82
2023/12/05 03:09:03;;;;;;;43.08;24.63;;;;;;;3.02;100.00;99211.41;4959308;28;20051;-82
2023/12/05 03:11:40;;;;;;;38.80;22.85;;;;;;;3.15;100.00;99221.44;4959793;29;20083;-81
2023/12/05 03:14:09;;;;;;;38.78;23.60;;;;;;;3.17;100.00;99214.34;4959873;29;20106;-81
2023/12/05 03:16:38;;;;;;;40.40;22.60;;;;;;;3.19;100.00;99221.00;4959060;29;20054;-82
2023/12/05 03:19:05;;;;;;;38.47;23.42;;;;;;;3.24;100.00;99225.75;4958932;28;20122;-81
2023/12/05 03:21:32;;;;;;;40.35;23.58;;;;;;;3.26;100.00;99224.66;4959607;29;20070;-80
2023/12/05 03:23:58;;;;;;;41.40;24.05;;;;;;;3.31;100.00;99221.59;4959684;29;20142;-81
2023/12/05 03:26:25;;;;;;;37.42;22.58;;;;;;;3.28;100.00;99216.75;4959086;29;20093;-80
2023/12/05 03:28:52;;;;;;;35.92;22.25;;;;;;;3.33;100.00;99209.34;4959894;29;20135;-80
2023/12/05 03:31:19;;;;;;;39.08;23.85;;;;;;;3.38;100.00;99211.50;4966815;28;20079;-81
2023/12/05 03:33:47;;;;;;;39.35;23.17;;;;;;;3.37;100.00;99218.44;4959119;28;20055;-80
2023/12/05 03:36:14;;;;;;;35.00;21.48;;;;;;;3.41;100.00;99216.38;4958997;29;20047;-80
2023/12/05 03:38:40;;;;;;;37.97;22.52;;;;;;;3.43;100.00;99214.47;4966637;29;20114;-81
2023/12/05 03:41:10;;;;;;;36.03;21.50;;;;;;;3.49;100.00;99216.47;4964075;29;20565;-81
2023/12/05 03:43:36;;;;;;;35.05;20.65;;;;;;;3.51;100.00;99219.72;4966759;28;20052;-79
2023/12/05 03:46:05;;;;;;;34.13;21.00;;;;;;;3.50;100.00;99215.53;4959355;29;20134;-80
2023/12/05 03:48:32;;;;;;;32.88;20.73;;;;;;;3.51;100.00;99220.53;4959647;29;20078;-81
2023/12/05 03:51:00;;;;;;;31.42;20.13;;;;;;;3.57;100.00;99216.56;4960105;29;20047;-81
2023/12/05 03:53:27;;;;;;;34.03;21.25;;;;;;;3.53;100.00;99223.00;4964153;28;20485;-80
2023/12/05 03:55:53;;;;;;;28.58;19.52;;;;;;;3.54;100.00;99222.03;4958472;29;20130;-80
2023/12/05 03:58:20;;;;;;;32.45;20.50;;;;;;;3.59;100.00;99233.56;4958827;29;20114;-80
2023/12/05 04:00:46;;;;;;;30.55;19.25;;;;;;;3.61;100.00;99223.91;4959090;28;20082;-79
2023/12/05 04:03:14;;;;;;;32.55;20.33;;;;;;;3.73;100.00;99227.09;4958703;28;20089;-79
2023/12/05 04:05:41;;;;;;;33.65;19.95;;;;;;;3.67;100.00;99228.50;4960572;29;20055;-78
2023/12/05 04:08:09;;;;;;;33.60;20.95;;;;;;;3.67;100.00;99232.84;4963290;29;20082;-79
2023/12/05 04:10:35;;;;;;;28.25;18.48;;;;;;;3.67;100.00;99238.84;4964608;28;20055;-79
2023/12/05 04:13:02;;;;;;;28.40;19.52;;;;;;;3.68;100.00;99234.47;4965790;28;20047;-78
2023/12/05 04:15:28;;;;;;;30.92;19.27;;;;;;;3.73;100.00;99242.63;4961139;29;20061;-78
2023/12/05 04:17:55;;;;;;;27.55;18.38;;;;;;;3.76;100.00;99246.69;4961735;29;20485;-78
2023/12/05 04:20:22;;;;;;;29.63;19.70;;;;;;;3.77;100.00;99243.13;4962516;28;20165;-78
2023/12/05 04:22:49;;;;;;;32.92;20.48;;;;;;;3.76;100.00;99242.31;4961828;29;20111;-79
2023/12/05 04:25:17;;;;;;;33.33;20.13;;;;;;;3.81;100.00;99249.63;4964014;29;20086;-79
2023/12/05 04:27:43;;;;;;;35.60;20.10;;;;;;;3.80;100.00;99248.81;4968600;29;20140;-80
2023/12/05 04:30:11;;;;;;;29.85;19.17;;;;;;;3.84;100.00;99250.16;4966600;29;20070;-79
2023/12/05 04:32:38;;;;;;;30.98;20.33;;;;;;;3.83;100.00;99252.88;4971836;28;20110;-80
2023/12/05 04:35:05;;;;;;;29.73;19.67;;;;;;;3.85;100.00;99248.38;4965688;29;20047;-78
2023/12/05 04:37:32;;;;;;;32.60;20.08;;;;;;;3.86;100.00;99260.34;4964384;28;20130;-78
2023/12/05 04:39:58;;;;;;;28.73;19.63;;;;;;;3.87;100.00;99260.19;4966065;29;20051;-78
2023/12/05 04:42:26;;;;;;;32.97;19.85;;;;;;;3.89;100.00;99250.53;4966832;28;20046;-79
2023/12/05 04:44:53;;;;;;;32.08;21.27;;;;;;;3.91;100.00;99258.94;4961675;29;20156;-79
2023/12/05 04:47:20;;;;;;;32.15;20.00;;;;;;;3.91;100.00;99260.72;4960844;29;20082;-78
2023/12/05 04:49:46;;;;;;;32.80;21.08;;;;;;;3.94;100.00;99265.59;4961206;29;20421;-79
2023/12/05 04:52:13;;;;;;;32.15;20.45;;;;;;;3.96;100.00;99263.69;4961779;29;20134;-78
2023/12/05 04:54:40;;;;;;;31.70;20.30;;;;;;;3.95;100.00;99259.47;4965889;28;20118;-78
2023/12/05 04:57:06;;;;;;;33.30;19.70;;;;;;;4.02;100.00;99262.28;4959590;29;20115;-78
2023/12/05 04:59:34;;;;;;;32.47;20.25;;;;;;;4.04;100.00;99266.38;4968316;28;20067;-79
2023/12/05 05:02:01;;;;;;;30.05;18.83;;;;;;;4.04;100.00;99274.13;4960951;29;20053;-80
2023/12/05 05:04:27;;;;;;;28.80;19.95;;;;;;;4.04;100.00;99266.38;4962767;29;20480;-79
2023/12/05 05:06:54;;;;;;;31.55;19.88;;;;;;;4.09;100.00;99271.91;4960390;29;20138;-80
2023/12/05 05:09:21;;;;;;;31.90;19.50;;;;;;;4.10;100.00;99276.13;4966968;28;20123;-80
2023/12/05 05:11:47;;;;;;;33.33;19.27;;;;;;;4.14;100.00;99282.66;4961881;29;20138;-80
2023/12/05 05:14:14;;;;;;;32.42;20.27;;;;;;;4.15;100.00;99279.09;4960157;28;20084;-80
2023/12/05 05:16:42;;;;;;;28.20;19.17;;;;;;;4.22;100.00;99284.50;4962096;29;20094;-80
2023/12/05 05:19:08;;;;;;;32.60;20.10;;;;;;;4.16;100.00;99285.91;4960978;28;20130;-80
2023/12/05 05:21:35;;;;;;;32.58;19.88;;;;;;;4.18;100.00;99277.97;4960696;28;20083;-79
2023/12/05 05:24:02;;;;;;;32.38;20.38;;;;;;;4.21;100.00;99282.88;4963466;28;20083;-80
2023/12/05 05:26:28;;;;;;;30.88;20.98;;;;;;;4.21;100.00;99285.47;4958176;29;20122;-78
2023/12/05 05:28:55;;;;;;;33.30;21.10;;;;;;;4.24;100.00;99292.94;4957381;29;20134;-78
2023/12/05 05:31:22;;;;;;;32.25;19.73;;;;;;;4.24;100.00;99288.56;4958270;29;20197;-78
2023/12/05 05:33:50;;;;;;;29.75;19.55;;;;;;;4.23;100.00;99286.94;4963138;28;20047;-78
2023/12/05 05:36:17;;;;;;;31.52;20.48;;;;;;;4.26;100.00;99280.63;4959342;29;20074;-78
2023/12/05 05:38:43;;;;;;;29.85;19.13;;;;;;;4.33;100.00;99292.00;4967397;28;20189;-78
2023/12/05 05:41:11;;;;;;;33.22;20.00;;;;;;;4.30;100.00;99295.72;4963887;28;20114;-78
2023/12/05 05:43:38;;;;;;;33.58;20.40;;;;;;;4.29;100.00;99290.69;4960676;29;20074;-78
2023/12/05 05:46:05;;;;;;;32.63;20.55;;;;;;;4.37;100.00;99297.72;4960679;29;20296;-79
2023/12/05 05:48:32;;;;;;;32.65;20.05;;;;;;;4.51;100.00;99298.00;4962208;28;20066;-78
2023/12/05 05:51:00;;;;;;;31.50;19.65;;;;;;;4.48;100.00;99287.94;4964867;28;20058;-77
2023/12/05 05:53:27;;;;;;;30.95;20.45;;;;;;;4.45;100.00;99290.84;4957835;29;20047;-78
2023/12/05 05:55:53;;;;;;;26.88;18.20;;;;;;;4.51;100.00;99294.59;4957227;29;20130;-78
2023/12/05 05:58:20;;;;;;;31.00;18.67;;;;;;;4.51;100.00;99294.59;4958454;29;20146;-78
2023/12/05 06:00:47;;;;;;;30.40;19.20;;;;;;;4.57;100.00;99288.81;4957231;28;20142;-78
2023/12/05 06:03:14;;;;;;;32.95;18.45;;;;;;;4.58;100.00;99300.81;4956122;28;20051;-78
2023/12/05 06:05:41;;;;;;;28.17;19.15;;;;;;;4.57;100.00;99289.63;4956300;29;20086;-79
2023/12/05 06:08:09;;;;;;;30.30;18.30;;;;;;;4.60;100.00;99302.28;4959547;29;20143;-80
2023/12/05 06:10:36;;;;;;;27.42;18.20;;;;;;;4.66;100.00;99298.28;4965538;28;20059;-80
2023/12/05 06:13:02;;;;;;;28.25;18.95;;;;;;;4.61;100.00;99296.16;4966855;28;20051;-81
2023/12/05 06:15:28;;;;;;;29.05;17.95;;;;;;;4.61;100.00;99295.34;4965457;28;20066;-80
2023/12/05 06:18:20;;;;;;;29.95;17.45;;;;;;;4.66;100.00;99293.91;4962975;28;20494;-79
2023/12/05 06:21:29;;;;;;;31.83;18.48;;;;;;;4.68;100.00;99280.81;4956338;28;20094;-80
2023/12/05 06:33:25;;;;;;;29.88;17.70;;;;;;;4.82;100.00;99294.97;4953348;29;20569;-79
2023/12/05 06:36:41;;;;;;;28.70;18.65;;;;;;;4.82;100.00;99305.34;4964056;29;20111;-80
2023/12/05 06:42:11;;;;;;;38.42;22.70;;;;;;;4.97;100.00;99314.22;4958312;28;20051;-80
2023/12/05 06:44:42;;;;;;;30.92;18.48;;;;;;;4.72;100.00;99282.16;4959361;29;20097;-80
2023/12/05 06:47:18;;;;;;;40.45;25.55;;;;;;;4.92;100.00;99317.25;4960758;29;20047;-80
2023/12/05 06:49:46;;;;;;;29.23;18.10;;;;;;;4.97;100.00;99324.56;4961231;28;20057;-81
2023/12/05 06:52:24;;;;;;;32.38;18.98;;;;;;;4.92;100.00;99330.22;4959558;28;20423;-81
2023/12/05 06:55:00;;;;;;;25.30;15.40;;;;;;;4.86;100.00;99310.09;4964899;28;20071;-81
2023/12/05 06:57:27;;;;;;;26.30;15.30;;;;;;;4.82;100.00;99308.75;4961320;28;20047;-80
2023/12/05 07:00:02;;;;;;;27.20;15.43;;;;;;;4.90;100.00;99310.59;4975083;28;20122;-79
2023/12/05 07:02:29;;;;;;;24.77;16.15;;;;;;;4.87;100.00;99316.88;4963701;28;20102;-78
2023/12/05 07:04:58;;;;;;;31.83;21.27;;;;;;;4.81;100.00;99317.50;4967750;28;20070;-79
2023/12/05 07:07:25;;;;;;;24.67;16.13;;;;;;;4.94;100.00;99343.84;4960201;28;20051;-79
2023/12/05 07:09:53;;;;;;;25.48;16.52;;;;;;;5.04;100.00;99353.31;4969143;28;20047;-79
2023/12/05 07:12:20;;;;;;;20.65;13.27;;;;;;;4.99;100.00;99354.56;4964423;28;20110;-78
2023/12/05 07:14:47;;;;;;;17.75;11.73;;;;;;;4.98;100.00;99365.09;4957664;28;20082;-79
2023/12/05 07:17:13;;;;;;;20.15;11.77;;;;;;;4.98;100.00;99360.72;4957459;29;20070;-78
2023/12/05 07:19:40;;;;;;;21.65;12.32;;;;;;;4.99;100.00;99371.91;4958483;28;20087;-79
2023/12/05 07:22:06;;;;;;;19.60;12.40;;;;;;;5.10;100.00;99369.06;4958877;28;20586;-79
2023/12/05 07:24:33;;;;;;;21.38;13.43;;;;;;;5.18;100.00;99379.50;4958584;28;20074;-78
2023/12/05 07:27:01;;;;;;;19.30;11.25;;;;;;;5.12;100.00;99376.69;4957344;29;20062;-78
2023/12/05 07:29:28;;;;;;;20.00;11.32;;;;;;;5.17;100.00;99384.84;4957074;29;20069;-78
2023/12/05 07:31:54;;;;;;;18.25;11.55;;;;;;;5.17;100.00;99380.47;4958735;29;20140;-79
2023/12/05 07:34:21;;;;;;;18.45;11.38;;;;;;;5.21;100.00;99383.53;4956533;29;20071;-78
2023/12/05 07:36:47;;;;;;;19.88;11.63;;;;;;;5.17;100.00;99396.03;4958853;28;20051;-79
2023/12/05 07:39:14;;;;;;;15.98;9.70;;;;;;;5.19;100.00;99393.28;4962390;29;20098;-79
2023/12/05 07:41:41;;;;;;;16.65;10.93;;;;;;;5.23;100.00;99397.19;4962958;29;20051;-80
2023/12/05 07:44:11;;;;;;;18.88;10.63;;;;;;;5.29;100.00;99406.94;4962980;28;20142;-80
2023/12/05 07:46:42;;;;;;;20.30;10.75;;;;;;;5.38;100.00;99405.22;4962853;29;20130;-80
2023/12/05 07:49:09;;;;;;;24.38;13.45;;;;;;;5.42;100.00;99399.59;4962719;29;20427;-80
2023/12/05 07:51:36;;;;;;;19.73;10.85;;;;;;;5.44;100.00;99399.44;4963727;29;20480;-79
2023/12/05 07:54:05;;;;;;;17.23;10.32;;;;;;;5.56;100.00;99417.19;4963097;28;20168;-79
2023/12/05 07:56:31;;;;;;;18.55;10.23;;;;;;;5.51;100.00;99414.25;4962698;29;20054;-79
2023/12/05 07:58:58;;;;;;;14.57;10.02;;;;;;;5.62;100.00;99416.56;4961760;29;20422;-80
2023/12/05 08:01:26;;;;;;;17.23;10.80;;;;;;;5.58;100.00;99415.25;4963412;29;20115;-80
2023/12/05 08:03:53;;;;;;;14.40;10.38;;;;;;;5.63;100.00;99422.59;4962619;29;20147;-80
2023/12/05 08:06:20;;;;;;;14.88;8.73;;;;;;;5.69;100.00;99411.56;4960639;29;20051;-80
2023/12/05 08:08:47;;;;;;;21.63;14.18;;;;;;;5.71;100.00;99422.59;4962152;29;20126;-79
2023/12/05 08:11:14;;;;;;;12.77;8.95;;;;;;;5.67;100.00;99422.09;4961989;29;20138;-80
2023/12/05 08:13:40;;;;;;;14.35;9.52;;;;;;;5.74;100.00;99419.69;4961743;29;20478;-79
2023/12/05 08:16:08;;;;;;;17.33;9.30;;;;;;;5.74;100.00;99424.88;4960322;29;20055;-79
2023/12/05 08:18:36;;;;;;;16.52;9.32;;;;;;;5.72;100.00;99421.63;4961246;29;20063;-81
2023/12/05 08:21:02;;;;;;;14.30;9.25;;;;;;;5.83;100.00;99429.16;4961592;29;20134;-80
2023/12/05 08:23:29;;;;;;;11.63;9.25;;;;;;;5.95;100.00;99432.34;4960750;28;20070;-80
2023/12/05 08:25:56;;;;;;;14.63;8.77;;;;;;;5.88;100.00;99432.09;4961766;29;20140;-80
2023/12/05 08:28:22;;;;;;;14.30;8.98;;;;;;;5.92;100.00;99436.06;4961108;29;20055;-79
2023/12/05 08:30:49;;;;;;;13.93;8.30;;;;;;;5.93;100.00;99439.47;4961892;28;20137;-80
2023/12/05 08:33:16;;;;;;;13.90;8.73;;;;;;;5.96;100.00;99447.75;4961352;29;20061;-79
2023/12/05 08:35:45;;;;;;;12.80;8.50;;;;;;;5.98;100.00;99440.63;4953438;29;20051;-81
2023/12/05 08:38:12;;;;;;;13.77;8.18;;;;;;;5.92;100.00;99448.22;4962251;29;20134;-80
2023/12/05 08:40:39;;;;;;;12.98;7.60;;;;;;;6.05;100.00;99448.63;4961893;28;20086;-81
2023/12/05 08:43:06;;;;;;;12.13;7.82;;;;;;;6.07;100.00;99451.06;4961717;29;20062;-80
2023/12/05 08:45:32;;;;;;;15.95;7.90;;;;;;;6.16;100.00;99452.69;4961340;29;20102;-81
2023/12/05 08:47:58;;;;;;;13.77;8.43;;;;;;;6.12;100.00;99448.81;4964149;29;20063;-80
2023/12/05 08:50:25;;;;;;;13.40;7.80;;;;;;;6.22;100.00;99454.66;4961682;28;20207;-81
2023/12/05 08:52:52;;;;;;;13.70;7.85;;;;;;;6.20;100.00;99452.22;4963058;29;20111;-81
2023/12/05 08:55:19;;;;;;;14.32;7.78;;;;;;;6.24;100.00;99458.75;4961848;29;20094;-79
2023/12/05 08:57:46;;;;;;;10.27;7.65;;;;;;;6.27;100.00;99442.84;4959636;29;20101;-81
2023/12/05 09:00:13;;;;;;;12.30;7.47;;;;;;;6.18;100.00;99455.94;4959702;29;20053;-78
2023/12/05 09:02:39;;;;;;;14.90;7.72;;;;;;;6.29;100.00;99460.88;4958924;28;20078;-79
2023/12/05 09:05:06;;;;;;;11.90;7.78;;;;;;;6.39;100.00;99465.94;4959412;29;20082;-79
2023/12/05 09:07:33;;;;;;;12.13;7.35;;;;;;;6.30;100.00;99449.50;4959932;29;20130;-79
2023/12/05 09:10:01;;;;;;;12.70;7.50;;;;;;;6.31;100.00;99469.31;4960006;29;20063;-80
2023/12/05 09:12:28;;;;;;;13.25;7.22;;;;;;;6.37;100.00;99465.28;4961870;28;20494;-80
2023/12/05 09:14:55;;;;;;;10.95;7.65;;;;;;;6.33;100.00;99478.59;4964502;28;20082;-80
2023/12/05 09:17:21;;;;;;;10.48;7.68;;;;;;;6.47;100.00;99464.19;4964945;29;20067;-80
2023/12/05 09:19:50;;;;;;;13.15;7.85;;;;;;;6.38;100.00;99475.53;4964537;29;20158;-80
2023/12/05 09:22:17;;;;;;;15.43;7.68;;;;;;;6.49;100.00;99469.22;4960215;28;20625;-80
2023/12/05 09:24:43;;;;;;;12.60;7.35;;;;;;;6.50;100.00;99474.28;4959743;29;20447;-80
2023/12/05 09:27:11;;;;;;;10.38;7.30;;;;;;;6.58;100.00;99470.88;4959801;29;20138;-80
2023/12/05 09:29:38;;;;;;;9.68;6.88;;;;;;;6.50;100.00;99473.47;4958527;29;20051;-80
2023/12/05 09:32:05;;;;;;;12.45;8.88;;;;;;;6.59;100.00;99478.53;4959319;28;20058;-80
2023/12/05 09:34:32;;;;;;;12.45;6.90;;;;;;;6.54;100.00;99492.97;4959283;28;20138;-80
2023/12/05 09:36:58;;;;;;;12.75;6.90;;;;;;;6.58;100.00;99486.47;4958395;28;20142;-80
2023/12/05 09:39:25;;;;;;;9.30;6.68;;;;;;;6.56;100.00;99484.03;4958596;28;20422;-80
2023/12/05 09:41:53;;;;;;;10.38;6.70;;;;;;;6.56;100.00;99483.22;4959542;28;20059;-79
2023/12/05 09:44:28;;;;;;;9.85;6.68;;;;;;;6.65;100.00;99483.06;4959079;29;20142;-79
2023/12/05 09:47:01;;;;;;;8.55;5.97;;;;;;;6.66;100.00;99487.28;4959607;29;20054;-80
2023/12/05 09:49:28;;;;;;;11.75;6.07;;;;;;;6.68;100.00;99481.13;4959459;29;20055;-79
2023/12/05 09:51:55;;;;;;;8.05;5.63;;;;;;;6.68;100.00;99487.13;4959627;29;20093;-80
2023/12/05 09:54:25;;;;;;;9.98;5.93;;;;;;;6.62;100.00;99487.75;4958776;29;20160;-80
2023/12/05 09:56:53;;;;;;;9.55;6.05;;;;;;;6.71;100.00;99492.00;4959694;28;20062;-79
2023/12/05 09:59:22;;;;;;;10.18;6.10;;;;;;;6.75;100.00;99500.31;4959338;28;20110;-80
2023/12/05 10:01:50;;;;;;;10.63;7.32;;;;;;;6.77;100.00;99499.19;4958332;28;20051;-80
2023/12/05 10:04:18;;;;;;;18.40;11.02;;;;;;;6.86;100.00;99497.41;4958172;29;20054;-78
2023/12/05 10:06:48;;;;;;;10.13;6.72;;;;;;;6.81;100.00;99497.91;4959196;29;20044;-79
2023/12/05 10:09:16;;;;;;;10.48;5.70;;;;;;;6.72;100.00;99503.22;4958498;29;20138;-79
2023/12/05 10:11:44;;;;;;;10.13;6.43;;;;;;;6.85;100.00;99504.41;4950102;29;20058;-80
2023/12/05 10:14:10;;;;;;;8.68;6.13;;;;;;;6.83;100.00;99506.34;4957092;29;20133;-79
2023/12/05 10:16:39;;;;;;;9.27;5.75;;;;;;;6.76;100.00;99504.53;4958030;29;20304;-80
2023/12/05 10:19:07;;;;;;;8.63;5.70;;;;;;;6.86;100.00;99505.22;4961863;29;20514;-79
2023/12/05 10:21:33;;;;;;;10.40;6.30;;;;;;;6.76;100.00;99505.34;4960151;29;20078;-79
2023/12/05 10:24:01;;;;;;;9.00;5.68;;;;;;;6.85;100.00;99506.19;4955781;29;20141;-79
2023/12/05 10:26:29;;;;;;;10.85;5.97;;;;;;;6.90;100.00;99507.34;4957196;29;20055;-79
2023/12/05 10:28:57;;;;;;;11.98;5.63;;;;;;;6.86;100.00;99506.03;4957516;29;20062;-79
2023/12/05 10:31:24;;;;;;;12.02;6.72;;;;;;;6.97;100.00;99505.72;4957274;29;20063;-80
2023/12/05 10:34:04;;;;;;;10.77;5.85;;;;;;;6.99;100.00;99503.78;4957190;29;20580;-79
2023/12/05 10:36:31;;;;;;;9.80;5.93;;;;;;;7.08;100.00;99515.03;4958516;29;20126;-80
2023/12/05 10:38:57;;;;;;;9.70;6.05;;;;;;;7.15;100.00;99505.56;4957525;29;20569;-79
2023/12/05 10:41:28;;;;;;;8.68;5.78;;;;;;;7.21;100.00;99506.72;4957253;29;20051;-79
2023/12/05 10:43:55;;;;;;;12.27;6.70;;;;;;;7.14;100.00;99503.13;4958412;28;20111;-80
2023/12/05 10:46:22;;;;;;;9.20;5.82;;;;;;;7.33;100.00;99511.44;4956958;29;20051;-79
2023/12/05 10:48:49;;;;;;;11.90;7.43;;;;;;;7.45;100.00;99509.34;4957442;29;20126;-80
2023/12/05 10:51:18;;;;;;;9.80;6.15;;;;;;;7.37;100.00;99509.34;4957243;29;20149;-79
2023/12/05 10:53:45;;;;;;;11.23;6.90;;;;;;;7.39;100.00;99512.59;4953525;29;20130;-79
2023/12/05 10:56:12;;;;;;;8.10;5.68;;;;;;;7.39;100.00;99510.00;4955967;29;20082;-79
2023/12/05 10:58:39;;;;;;;8.85;5.63;;;;;;;7.22;100.00;99503.16;4956475;29;20048;-79
2023/12/05 11:01:08;;;;;;;9.35;5.68;;;;;;;7.17;100.00;99508.00;4955525;29;20137;-80
2023/12/05 11:03:37;;;;;;;8.30;5.55;;;;;;;7.18;100.00;99507.84;4955340;28;20134;-80
2023/12/05 11:06:16;;;;;;;9.38;6.28;;;;;;;7.20;100.00;99512.91;4954705;29;20075;-80
2023/12/05 11:08:44;;;;;;;10.82;5.80;;;;;;;7.27;100.00;99508.69;4953991;29;20051;-80
2023/12/05 11:11:13;;;;;;;11.55;6.50;;;;;;;7.29;100.00;99514.53;4956053;29;20478;-80
2023/12/05 11:13:41;;;;;;;12.20;7.95;;;;;;;7.35;100.00;99518.28;4960203;28;20058;-80
2023/12/05 11:16:14;;;;;;;9.57;5.22;;;;;;;7.41;100.00;99510.66;4961633;29;20051;-80
2023/12/05 11:18:43;;;;;;;9.40;4.80;;;;;;;7.38;100.00;99510.97;4961090;29;20106;-80
2023/12/05 11:21:43;;;;;;;12.30;5.88;;;;;;;7.46;100.00;99507.56;4959379;29;20074;-80
2023/12/05 11:24:37;;;;;;;8.35;4.00;;;;;;;7.38;100.00;99510.97;4958328;28;20091;-80
2023/12/05 11:27:20;;;;;;;10.02;5.82;;;;;;;7.37;100.00;99501.53;4958552;29;20055;-80
2023/12/05 11:30:13;;;;;;;11.45;8.70;;;;;;;7.38;100.00;99502.34;4960180;29;20081;-80
2023/12/05 11:32:49;;;;;;;12.82;8.57;;;;;;;7.45;100.00;99501.53;4960674;29;20142;-80
2023/12/05 11:35:27;;;;;;;12.82;7.35;;;;;;;7.53;100.00;99505.94;4961599;29;20090;-80
2023/12/05 11:38:07;;;;;;;11.60;6.30;;;;;;;7.49;100.00;99502.84;4965715;29;20051;-80